Time;durP1;ratioP1;P1;durP2;ratioP2;P2;SDS_P1;SDS_P2;PMS_P1;PMS_P2;Temp;Humidity;BMP_temperature;BMP_pressure;BME280_temperature;BME280_humidity;BME280_pressure;Samples;Min_cycle;Max_cycle;Signal;HPM_P1;HPM_P2
2022/11/21 00:00:00;;;;;;;22.58;13.88;;;;;;;3.78;69.84;99856.09;684429;28;1240;-84
2022/11/21 00:00:21;;;;;;;21.42;13.48;;;;;;;3.83;69.73;99862.34;692075;28;1229;-84
2022/11/21 00:00:44;;;;;;;20.75;13.15;;;;;;;3.77;69.86;99857.81;693238;28;1274;-84
2022/11/21 00:01:14;;;;;;;20.10;12.90;;;;;;;3.80;69.65;99863.09;690521;28;1330;-84
2022/11/21 00:01:35;;;;;;;20.27;13.50;;;;;;;3.85;69.71;99859.84;687445;28;1738;-84
2022/11/21 00:01:55;;;;;;;21.97;14.00;;;;;;;3.83;69.56;99863.25;690585;28;1203;-85
2022/11/21 00:02:16;;;;;;;23.50;14.30;;;;;;;3.85;69.79;99865.88;693167;28;1157;-84
2022/11/21 00:02:45;;;;;;;23.27;13.98;;;;;;;3.85;69.94;99865.00;693194;28;1507;-85
2022/11/21 00:03:06;;;;;;;21.92;13.65;;;;;;;3.82;69.67;99864.03;690539;28;1045;-84
2022/11/21 00:03:26;;;;;;;21.38;13.90;;;;;;;3.85;69.80;99865.00;695601;28;1297;-84
2022/11/21 00:03:47;;;;;;;22.90;13.73;;;;;;;3.85;69.99;99862.41;685244;28;1475;-84
2022/11/21 00:04:08;;;;;;;22.10;13.25;;;;;;;3.82;69.51;99864.03;684588;28;1193;-84
2022/11/21 00:04:29;;;;;;;22.48;13.13;;;;;;;3.90;70.05;99869.53;692917;28;1296;-84
2022/11/21 00:04:50;;;;;;;20.77;13.20;;;;;;;3.87;69.79;99863.34;690728;28;1542;-84
2022/11/21 00:05:11;;;;;;;20.60;13.30;;;;;;;3.85;69.90;99863.28;690702;28;1182;-84
2022/11/21 00:05:32;;;;;;;20.52;13.30;;;;;;;3.86;69.54;99866.75;696121;28;1533;-84
2022/11/21 00:05:52;;;;;;;20.45;13.52;;;;;;;3.82;70.01;99858.88;695718;28;1160;-84
2022/11/21 00:06:14;;;;;;;20.35;12.90;;;;;;;3.88;69.76;99865.09;694087;28;1268;-84
2022/11/21 00:06:34;;;;;;;19.65;12.80;;;;;;;3.91;69.86;99866.13;691721;28;1328;-84
2022/11/21 00:06:55;;;;;;;20.00;13.27;;;;;;;3.87;69.58;99868.50;690740;28;864;-84
2022/11/21 00:07:15;;;;;;;20.25;13.63;;;;;;;3.86;69.50;99861.59;690699;28;1213;-84
2022/11/21 00:07:36;;;;;;;20.77;13.57;;;;;;;3.84;69.65;99861.53;693082;28;1396;-84
2022/11/21 00:07:57;;;;;;;21.13;13.40;;;;;;;3.85;69.57;99865.00;687885;28;1259;-84
2022/11/21 00:08:20;;;;;;;21.45;13.35;;;;;;;3.91;69.84;99876.44;689310;28;1247;-84
2022/11/21 00:08:41;;;;;;;21.95;13.45;;;;;;;3.88;69.75;99870.28;688008;28;1477;-84
2022/11/21 00:09:02;;;;;;;21.93;13.33;;;;;;;3.92;69.57;99875.63;682562;29;1025;-84
2022/11/21 00:09:22;;;;;;;21.98;13.20;;;;;;;3.91;69.55;99865.22;687758;28;1191;-84
2022/11/21 00:09:43;;;;;;;21.80;13.35;;;;;;;3.96;69.57;99879.22;687480;28;1790;-84
2022/11/21 00:10:04;;;;;;;21.47;13.50;;;;;;;3.95;69.71;99874.88;690311;28;1124;-84
2022/11/21 00:10:25;;;;;;;21.42;13.75;;;;;;;3.97;69.89;99875.81;690823;28;1270;-84
2022/11/21 00:10:46;;;;;;;21.70;13.95;;;;;;;3.95;69.60;99877.44;682518;28;1789;-83
2022/11/21 00:11:07;;;;;;;21.70;13.88;;;;;;;3.94;69.55;99873.13;685352;28;1277;-84
2022/11/21 00:11:27;;;;;;;21.50;13.75;;;;;;;3.94;69.51;99873.97;687847;28;1543;-85
2022/11/21 00:11:50;;;;;;;20.30;13.30;;;;;;;3.96;69.46;99874.94;690386;28;1363;-84
2022/11/21 00:12:11;;;;;;;20.60;13.60;;;;;;;3.94;69.68;99870.53;687753;28;1416;-84
2022/11/21 00:12:32;;;;;;;20.30;13.38;;;;;;;3.92;69.62;99867.88;688050;28;1010;-84
2022/11/21 00:12:56;;;;;;;20.65;13.50;;;;;;;3.91;69.43;99870.38;690744;28;870;-84
2022/11/21 00:13:19;;;;;;;20.02;13.60;;;;;;;3.93;69.44;99861.88;694563;28;1159;-85
2022/11/21 00:13:40;;;;;;;22.77;14.50;;;;;;;3.96;69.44;99863.72;695866;28;1583;-85
2022/11/21 00:14:00;;;;;;;22.25;14.25;;;;;;;3.97;69.53;99874.13;690573;28;1117;-84
2022/11/21 00:14:21;;;;;;;21.33;13.82;;;;;;;3.95;69.31;99872.28;687847;28;1313;-84
2022/11/21 00:14:41;;;;;;;19.50;13.03;;;;;;;3.93;69.69;99859.31;693388;28;2019;-84
2022/11/21 00:15:02;;;;;;;20.40;13.48;;;;;;;3.98;69.33;99869.81;692879;28;1168;-84
2022/11/21 00:15:25;;;;;;;21.35;13.55;;;;;;;4.03;69.68;99876.06;690553;28;1218;-84
2022/11/21 00:15:46;;;;;;;23.50;14.30;;;;;;;4.01;69.47;99885.44;687862;28;1432;-84
2022/11/21 00:16:10;;;;;;;23.13;13.82;;;;;;;4.00;69.35;99881.09;687846;28;1257;-84
2022/11/21 00:16:31;;;;;;;22.20;14.10;;;;;;;3.92;69.15;99861.84;682727;28;1575;-84
2022/11/21 00:16:51;;;;;;;20.60;13.63;;;;;;;3.94;69.69;99865.38;687971;28;1513;-84
2022/11/21 00:17:12;;;;;;;20.70;13.70;;;;;;;3.94;69.45;99865.38;688344;28;1276;-84
2022/11/21 00:17:32;;;;;;;20.30;13.30;;;;;;;3.95;69.28;99868.03;690513;28;1519;-84
2022/11/21 00:18:04;;;;;;;21.17;13.32;;;;;;;3.98;69.15;99882.72;687821;28;1186;-84
2022/11/21 00:18:25;;;;;;;22.13;13.57;;;;;;;3.85;69.17;99865.88;690681;28;1216;-85
2022/11/21 00:18:45;;;;;;;21.98;13.63;;;;;;;3.83;69.26;99870.97;687825;28;1701;-84
2022/11/21 00:19:06;;;;;;;21.37;13.27;;;;;;;3.81;69.17;99871.72;685050;28;1313;-84
2022/11/21 00:19:27;;;;;;;21.65;13.15;;;;;;;3.82;69.70;99870.91;695675;28;1356;-84
2022/11/21 00:19:47;;;;;;;20.50;13.20;;;;;;;3.83;69.64;99875.25;690104;28;1318;-84
2022/11/21 00:20:08;;;;;;;19.60;13.10;;;;;;;3.82;69.33;99873.50;692707;28;1175;-84
2022/11/21 00:20:29;;;;;;;18.98;13.52;;;;;;;3.82;69.47;99874.34;685090;28;1663;-84
2022/11/21 00:20:50;;;;;;;20.95;13.80;;;;;;;3.81;69.74;99870.00;690531;28;1202;-83
2022/11/21 00:21:13;;;;;;;21.58;13.57;;;;;;;3.82;69.42;99874.34;693465;28;1233;-85
2022/11/21 00:21:34;;;;;;;22.45;13.52;;;;;;;3.80;69.80;99868.25;695944;28;1240;-84
2022/11/21 00:21:55;;;;;;;22.02;13.85;;;;;;;3.85;69.63;99876.19;690580;28;1133;-84
2022/11/21 00:22:15;;;;;;;21.43;13.53;;;;;;;3.81;69.73;99879.47;692588;28;1348;-84
2022/11/21 00:22:36;;;;;;;21.63;13.20;;;;;;;3.84;69.17;99879.59;690658;28;1676;-84
2022/11/21 00:22:56;;;;;;;21.70;13.30;;;;;;;3.80;69.57;99878.59;692227;28;2520;-84
2022/11/21 00:23:17;;;;;;;22.50;13.30;;;;;;;3.79;69.77;99876.81;687355;28;1098;-84
2022/11/21 00:23:38;;;;;;;22.42;13.57;;;;;;;3.86;69.42;99887.41;687631;28;1499;-84
2022/11/21 00:23:58;;;;;;;21.73;13.45;;;;;;;3.86;69.30;99887.41;690434;28;1279;-84
2022/11/21 00:24:19;;;;;;;21.37;13.60;;;;;;;3.82;69.53;99882.09;690252;28;1127;-84
2022/11/21 00:24:39;;;;;;;21.58;13.70;;;;;;;3.83;69.75;99881.31;690616;28;1470;-84
2022/11/21 00:25:00;;;;;;;22.60;14.07;;;;;;;3.85;69.72;99881.34;690515;28;889;-84
2022/11/21 00:25:21;;;;;;;23.93;14.50;;;;;;;3.76;69.65;99881.88;685102;28;1295;-84
2022/11/21 00:25:42;;;;;;;23.90;14.30;;;;;;;3.73;69.44;99876.56;684965;28;1348;-84
2022/11/21 00:26:04;;;;;;;22.47;13.93;;;;;;;3.71;69.74;99880.78;684963;28;1173;-84
2022/11/21 00:26:28;;;;;;;21.70;13.55;;;;;;;3.74;69.67;99891.22;690353;28;1404;-84
2022/11/21 00:26:49;;;;;;;21.80;13.40;;;;;;;3.76;69.73;99891.28;690283;28;1380;-84
2022/11/21 00:27:09;;;;;;;21.92;13.88;;;;;;;3.75;69.33;99889.53;690497;28;1289;-84
2022/11/21 00:27:30;;;;;;;23.10;14.13;;;;;;;3.64;69.43;99866.75;684956;28;1222;-84
2022/11/21 00:27:51;;;;;;;22.90;13.90;;;;;;;3.71;69.75;99878.22;690455;28;1119;-84
2022/11/21 00:28:12;;;;;;;22.58;13.70;;;;;;;3.68;69.86;99883.25;693062;28;1291;-84
2022/11/21 00:28:33;;;;;;;23.50;13.55;;;;;;;3.68;69.34;99880.69;690455;28;1199;-84
2022/11/21 00:28:54;;;;;;;24.05;14.20;;;;;;;3.68;69.76;99878.97;693255;28;1384;-84
2022/11/21 00:29:14;;;;;;;24.00;13.73;;;;;;;3.60;69.61;99879.47;687625;28;1150;-84
2022/11/21 00:29:35;;;;;;;21.67;13.30;;;;;;;3.59;69.54;99878.56;689170;28;1472;-84
2022/11/21 00:29:55;;;;;;;21.43;13.47;;;;;;;3.73;69.86;99897.22;687393;28;1201;-84
2022/11/21 00:30:23;;;;;;;20.25;13.27;;;;;;;3.76;69.39;99891.28;685982;28;1242;-84
2022/11/21 00:30:44;;;;;;;20.30;13.27;;;;;;;3.78;69.96;99889.66;687856;28;928;-84
2022/11/21 00:31:05;;;;;;;21.87;13.60;;;;;;;3.73;69.37;99889.47;690418;28;1121;-84
2022/11/21 00:31:25;;;;;;;23.23;13.77;;;;;;;3.64;69.57;99881.34;692880;28;1378;-84
2022/11/21 00:31:46;;;;;;;23.70;14.20;;;;;;;3.64;69.67;99881.34;687490;28;1678;-84
2022/11/21 00:32:07;;;;;;;22.27;13.67;;;;;;;3.67;69.57;99894.38;692996;28;1274;-84
2022/11/21 00:32:27;;;;;;;21.13;13.18;;;;;;;3.64;69.84;99887.41;695913;28;1228;-84
2022/11/21 00:32:48;;;;;;;21.33;12.67;;;;;;;3.61;70.00;99888.97;693083;28;1644;-84
2022/11/21 00:33:08;;;;;;;21.25;12.98;;;;;;;3.65;69.72;99893.44;695667;28;1470;-84
2022/11/21 00:33:29;;;;;;;22.08;13.38;;;;;;;3.59;70.15;99877.69;690437;28;1452;-84
2022/11/21 00:33:50;;;;;;;22.58;14.15;;;;;;;3.58;70.30;99886.25;687427;28;1425;-85
2022/11/21 00:34:11;;;;;;;23.08;14.30;;;;;;;3.57;70.27;99877.63;690819;28;1229;-84
2022/11/21 00:34:31;;;;;;;22.00;14.30;;;;;;;3.62;70.04;99893.31;690101;28;1997;-84
2022/11/21 00:34:52;;;;;;;22.50;14.00;;;;;;;3.57;70.25;99887.97;687816;28;1503;-84
2022/11/21 00:35:12;;;;;;;22.63;13.85;;;;;;;3.55;70.28;99887.00;687705;28;1210;-84
2022/11/21 00:35:33;;;;;;;22.07;13.57;;;;;;;3.58;70.02;99881.97;685116;28;1811;-84
2022/11/21 00:35:54;;;;;;;21.23;13.50;;;;;;;3.63;70.06;99890.81;690462;28;1507;-84
2022/11/21 00:36:14;;;;;;;20.98;13.57;;;;;;;3.66;69.94;99895.19;688495;28;1281;-84
2022/11/21 00:36:35;;;;;;;21.80;13.90;;;;;;;3.67;69.93;99891.78;691835;28;1335;-84
2022/11/21 00:36:55;;;;;;;21.20;14.00;;;;;;;3.74;69.58;99911.88;685015;28;1188;-84
2022/11/21 00:37:16;;;;;;;22.17;14.35;;;;;;;3.70;69.25;99889.34;682442;29;1202;-83
2022/11/21 00:37:37;;;;;;;22.20;14.53;;;;;;;3.70;69.64;99902.25;688583;28;1528;-84
2022/11/21 00:37:57;;;;;;;24.00;14.50;;;;;;;3.73;69.20;99904.94;693016;28;1581;-84
2022/11/21 00:38:18;;;;;;;22.95;13.90;;;;;;;3.71;69.31;99893.69;690232;28;1396;-83
2022/11/21 00:38:38;;;;;;;23.70;13.97;;;;;;;3.75;69.00;99894.69;687895;28;1662;-84
2022/11/21 00:38:59;;;;;;;20.95;13.23;;;;;;;3.77;69.12;99893.06;692767;28;1479;-84
2022/11/21 00:39:20;;;;;;;20.98;13.15;;;;;;;3.86;69.00;99902.88;687422;28;1339;-84
2022/11/21 00:39:40;;;;;;;22.95;13.65;;;;;;;3.80;69.15;99899.22;690162;28;1133;-84
2022/11/21 00:40:01;;;;;;;25.00;14.10;;;;;;;3.79;68.78;99892.31;689776;28;1464;-84
2022/11/21 00:40:22;;;;;;;23.48;13.70;;;;;;;3.78;68.74;99895.72;691660;28;1739;-84
2022/11/21 00:40:43;;;;;;;22.17;13.30;;;;;;;3.79;68.96;99891.41;696152;28;1083;-84
2022/11/21 00:41:05;;;;;;;22.83;13.45;;;;;;;3.78;68.88;99895.72;690470;28;1313;-84
2022/11/21 00:41:26;;;;;;;24.33;14.15;;;;;;;3.82;69.10;99899.31;698336;28;1129;-84
2022/11/21 00:41:46;;;;;;;22.90;13.80;;;;;;;3.82;69.47;99895.00;696112;28;1100;-84
2022/11/21 00:42:07;;;;;;;21.48;13.80;;;;;;;3.81;68.73;99898.41;690265;28;1867;-84
2022/11/21 00:42:27;;;;;;;20.93;13.73;;;;;;;3.88;68.63;99901.25;687677;28;1269;-84
2022/11/21 00:42:48;;;;;;;22.43;14.27;;;;;;;3.81;69.02;99894.97;690718;28;740;-84
2022/11/21 00:43:09;;;;;;;23.02;14.57;;;;;;;3.80;68.75;99896.66;693017;28;1526;-84
2022/11/21 00:43:30;;;;;;;22.92;14.63;;;;;;;3.79;69.29;99887.16;695966;28;963;-84
2022/11/21 00:43:50;;;;;;;22.60;14.73;;;;;;;3.80;68.94;99885.47;693509;28;689;-84
2022/11/21 00:44:11;;;;;;;22.40;14.40;;;;;;;3.81;69.20;99894.97;688149;28;1245;-85
2022/11/21 00:44:32;;;;;;;20.93;13.87;;;;;;;3.81;69.08;99898.41;687818;28;1071;-84
2022/11/21 00:44:52;;;;;;;21.67;13.90;;;;;;;3.81;69.16;99895.81;690531;28;1116;-84
2022/11/21 00:45:13;;;;;;;22.63;13.85;;;;;;;3.87;68.89;99904.66;690253;28;1220;-84
2022/11/21 00:45:34;;;;;;;24.00;14.30;;;;;;;3.81;69.07;99888.09;687760;28;1162;-84
2022/11/21 00:45:54;;;;;;;23.02;14.30;;;;;;;3.85;68.93;99906.28;682561;29;1206;-84
2022/11/21 00:46:15;;;;;;;22.15;14.75;;;;;;;3.91;68.76;99901.34;686669;28;1288;-84
2022/11/21 00:46:35;;;;;;;21.27;14.17;;;;;;;3.85;68.97;99890.81;691274;28;1509;-84
2022/11/21 00:46:56;;;;;;;22.35;14.27;;;;;;;3.85;68.66;99896.84;693146;28;1490;-83
2022/11/21 00:47:17;;;;;;;23.13;13.88;;;;;;;3.86;68.74;99900.31;693157;28;1209;-84
2022/11/21 00:47:38;;;;;;;24.15;13.90;;;;;;;3.85;68.99;99899.41;687659;28;1527;-84
2022/11/21 00:47:58;;;;;;;25.42;14.18;;;;;;;3.80;68.82;99894.06;686098;28;1169;-84
2022/11/21 00:48:19;;;;;;;25.20;14.50;;;;;;;3.79;68.99;99894.88;689116;28;1230;-84
2022/11/21 00:48:40;;;;;;;24.75;15.00;;;;;;;3.81;69.04;99900.97;689145;28;1650;-84
2022/11/21 00:49:01;;;;;;;23.80;14.80;;;;;;;3.87;68.89;99910.72;682343;28;1245;-84
2022/11/21 00:49:21;;;;;;;23.80;14.52;;;;;;;3.79;69.22;99892.31;684841;28;1266;-84
2022/11/21 00:49:42;;;;;;;25.00;14.27;;;;;;;3.82;68.90;99899.31;684806;28;1725;-84
2022/11/21 00:50:03;;;;;;;25.55;14.68;;;;;;;3.82;69.08;99900.16;691340;28;1186;-84
2022/11/21 00:50:24;;;;;;;23.60;14.55;;;;;;;3.85;69.10;99895.97;690386;28;1233;-84
2022/11/21 00:50:47;;;;;;;22.10;13.87;;;;;;;3.88;69.00;99903.81;692615;28;819;-84
2022/11/21 00:51:08;;;;;;;23.08;13.60;;;;;;;3.89;68.83;99897.84;690438;28;1278;-84
2022/11/21 00:51:29;;;;;;;24.17;13.82;;;;;;;3.86;68.94;99897.72;694764;28;1025;-84
2022/11/21 00:51:49;;;;;;;23.67;14.43;;;;;;;3.84;68.85;99897.66;687661;28;1318;-84
2022/11/21 00:52:10;;;;;;;22.97;14.50;;;;;;;3.87;68.97;99907.22;685287;28;1300;-83
2022/11/21 00:52:31;;;;;;;24.15;14.93;;;;;;;3.89;69.14;99913.31;690235;28;1278;-84
2022/11/21 00:52:55;;;;;;;25.30;15.00;;;;;;;3.83;68.67;99898.47;690354;28;1679;-84
2022/11/21 00:53:15;;;;;;;24.33;14.55;;;;;;;3.81;69.07;99906.16;683294;28;1256;-84
2022/11/21 00:53:36;;;;;;;23.75;14.57;;;;;;;3.81;69.13;99906.16;685415;28;1346;-84
2022/11/21 00:53:57;;;;;;;23.77;14.30;;;;;;;3.77;69.09;99896.53;687776;28;1225;-84
2022/11/21 00:54:17;;;;;;;25.30;14.60;;;;;;;3.78;68.67;99900.88;691741;28;1173;-84
2022/11/21 00:54:38;;;;;;;25.13;14.65;;;;;;;3.82;69.00;99905.31;688150;28;1977;-84
2022/11/21 00:54:59;;;;;;;23.40;14.55;;;;;;;3.78;68.87;99894.81;687733;28;1355;-84
2022/11/21 00:55:19;;;;;;;22.80;14.00;;;;;;;3.81;69.21;99895.81;684919;28;1160;-84
2022/11/21 00:55:41;;;;;;;23.27;14.00;;;;;;;3.82;68.89;99895.00;685188;28;1346;-84
2022/11/21 00:56:01;;;;;;;24.88;14.10;;;;;;;3.87;69.06;99904.66;690481;28;1442;-84
2022/11/21 00:56:22;;;;;;;25.77;15.17;;;;;;;3.89;68.75;99910.75;690388;28;1314;-84
2022/11/21 00:56:42;;;;;;;26.10;15.20;;;;;;;3.83;68.66;99889.06;690585;28;1334;-84
2022/11/21 00:57:03;;;;;;;25.45;15.32;;;;;;;3.89;68.70;99905.59;690381;28;1107;-84
2022/11/21 00:57:24;;;;;;;24.03;14.57;;;;;;;3.91;68.53;99902.25;692692;28;1215;-84
2022/11/21 00:57:44;;;;;;;23.33;14.80;;;;;;;3.89;68.73;99897.84;690912;28;1383;-84
2022/11/21 00:58:05;;;;;;;23.83;15.23;;;;;;;3.96;68.75;99917.94;687652;28;1001;-84
2022/11/21 00:58:26;;;;;;;23.80;15.05;;;;;;;3.95;68.65;99913.59;695755;28;1242;-84
2022/11/21 00:58:46;;;;;;;23.07;14.57;;;;;;;3.93;68.67;99904.91;695908;28;782;-84
2022/11/21 00:59:07;;;;;;;23.10;14.70;;;;;;;3.89;68.54;99898.75;693008;28;1215;-84
2022/11/21 00:59:27;;;;;;;22.95;15.20;;;;;;;3.96;68.32;99915.34;689801;28;1344;-84
2022/11/21 00:59:48;;;;;;;23.20;15.27;;;;;;;3.88;68.49;99906.41;693026;28;1331;-85
2022/11/21 01:00:09;;;;;;;23.05;14.80;;;;;;;3.83;68.68;99899.38;694955;28;1200;-84
2022/11/21 01:00:30;;;;;;;23.92;14.40;;;;;;;3.85;68.86;99907.16;693211;28;972;-84
2022/11/21 01:00:51;;;;;;;24.27;14.52;;;;;;;3.87;68.45;99912.41;683091;28;1244;-84
2022/11/21 01:01:13;;;;;;;24.23;15.18;;;;;;;3.86;68.65;99905.47;690957;28;1305;-84
2022/11/21 01:01:34;;;;;;;23.08;15.43;;;;;;;3.87;68.68;99909.81;690452;28;1287;-84
2022/11/21 01:01:55;;;;;;;23.50;15.68;;;;;;;3.80;68.46;99901.81;690524;28;1194;-84
2022/11/21 01:02:15;;;;;;;24.17;14.90;;;;;;;3.82;68.87;99909.63;693163;28;1209;-84
2022/11/21 01:02:36;;;;;;;25.20;14.65;;;;;;;3.77;68.69;99904.28;692990;28;1582;-84
2022/11/21 01:02:56;;;;;;;24.75;14.50;;;;;;;3.83;68.58;99904.53;694949;28;1093;-84
2022/11/21 01:03:17;;;;;;;24.80;14.90;;;;;;;3.85;68.62;99907.16;690299;28;1350;-84
2022/11/21 01:03:38;;;;;;;26.08;15.52;;;;;;;3.90;68.52;99909.94;688549;28;1340;-84
2022/11/21 01:03:58;;;;;;;25.42;15.57;;;;;;;3.87;68.71;99904.66;693380;28;1157;-84
2022/11/21 01:04:19;;;;;;;25.90;15.43;;;;;;;3.85;68.35;99895.97;693052;28;1154;-84
2022/11/21 01:04:40;;;;;;;24.20;14.57;;;;;;;3.85;68.68;99898.56;692122;28;1479;-84
2022/11/21 01:05:00;;;;;;;22.80;13.73;;;;;;;3.87;68.36;99904.66;690511;28;1053;-84
2022/11/21 01:05:22;;;;;;;21.27;14.00;;;;;;;3.77;68.76;99909.44;685049;28;1132;-84
2022/11/21 01:05:43;;;;;;;21.20;14.10;;;;;;;3.74;68.80;99901.53;685001;28;1835;-84
2022/11/21 01:06:06;;;;;;;22.92;14.65;;;;;;;3.75;69.01;99905.91;682432;28;1135;-84
2022/11/21 01:06:27;;;;;;;22.17;13.75;;;;;;;3.68;69.03;99898.72;684957;28;1271;-84
2022/11/21 01:06:53;;;;;;;22.02;14.00;;;;;;;3.67;69.20;99894.38;687572;28;1583;-84
2022/11/21 01:07:13;;;;;;;22.27;13.77;;;;;;;3.71;69.08;99898.84;689353;28;1380;-84
2022/11/21 01:07:35;;;;;;;23.53;14.57;;;;;;;3.75;69.23;99910.19;691910;28;1164;-84
2022/11/21 01:07:55;;;;;;;23.15;14.85;;;;;;;3.66;68.70;99897.75;695901;28;1887;-84
2022/11/21 01:08:16;;;;;;;24.27;15.10;;;;;;;3.69;69.11;99909.09;689408;28;1428;-83
2022/11/21 01:08:40;;;;;;;24.58;14.65;;;;;;;3.68;68.79;99909.06;684797;28;1497;-84
2022/11/21 01:09:06;;;;;;;24.55;14.20;;;;;;;3.58;69.35;99900.03;687722;28;1303;-84
2022/11/21 01:09:28;;;;;;;24.02;14.40;;;;;;;3.62;69.21;99903.63;687757;28;1366;-84
2022/11/21 01:09:49;;;;;;;25.15;14.77;;;;;;;3.58;69.31;99897.47;687359;28;1416;-84
2022/11/21 01:10:09;;;;;;;25.47;15.57;;;;;;;3.63;69.26;99907.97;687675;28;1164;-84
2022/11/21 01:10:30;;;;;;;25.80;15.40;;;;;;;3.59;68.90;99908.63;682480;29;1285;-84
2022/11/21 01:10:50;;;;;;;24.50;14.95;;;;;;;3.56;69.40;99905.13;682384;29;1064;-84
2022/11/21 01:11:16;;;;;;;25.23;14.70;;;;;;;3.57;69.16;99908.59;682897;28;1234;-84
2022/11/21 01:11:37;;;;;;;24.30;14.45;;;;;;;3.59;69.13;99900.91;684458;28;1507;-84
2022/11/21 01:11:57;;;;;;;24.40;14.40;;;;;;;3.57;69.17;99906.03;685136;28;1341;-84
2022/11/21 01:12:18;;;;;;;23.47;14.23;;;;;;;3.58;69.15;99907.78;691720;28;1168;-84
2022/11/21 01:12:38;;;;;;;23.27;14.27;;;;;;;3.55;69.14;99897.31;688719;28;1812;-84
2022/11/21 01:12:59;;;;;;;22.85;14.23;;;;;;;3.61;69.18;99907.91;687796;28;1082;-84
2022/11/21 01:13:20;;;;;;;23.50;14.80;;;;;;;3.59;69.15;99909.53;687756;28;1295;-84
2022/11/21 01:13:41;;;;;;;24.70;15.23;;;;;;;3.62;69.05;99911.38;686159;28;1564;-84
2022/11/21 01:14:02;;;;;;;25.58;15.45;;;;;;;3.58;69.25;99910.34;690478;28;1122;-84
2022/11/21 01:14:23;;;;;;;24.45;15.00;;;;;;;3.58;69.20;99909.47;687697;28;1427;-85
2022/11/21 01:14:44;;;;;;;24.85;15.07;;;;;;;3.55;69.17;99903.38;690527;28;2022;-84
2022/11/21 01:15:14;;;;;;;25.20;15.20;;;;;;;3.56;69.55;99906.84;690313;28;1297;-84
2022/11/21 01:15:35;;;;;;;25.52;14.90;;;;;;;3.51;69.63;99904.06;690533;28;1515;-84
2022/11/21 01:15:55;;;;;;;23.10;13.93;;;;;;;3.58;69.38;99909.47;687890;28;1296;-84
2022/11/21 01:16:19;;;;;;;23.63;14.50;;;;;;;3.57;69.37;99913.75;691392;28;1210;-84
2022/11/21 01:16:40;;;;;;;24.83;14.75;;;;;;;3.50;69.17;99904.84;689573;28;1519;-85
2022/11/21 01:17:00;;;;;;;25.98;15.20;;;;;;;3.51;68.97;99905.75;687753;28;1207;-84
2022/11/21 01:17:21;;;;;;;25.27;15.20;;;;;;;3.50;69.24;99904.84;692011;28;1291;-84
2022/11/21 01:17:41;;;;;;;25.80;15.90;;;;;;;3.50;69.00;99914.31;690050;28;1185;-84
2022/11/21 01:18:02;;;;;;;26.35;15.98;;;;;;;3.43;69.14;99897.66;690555;28;1023;-84
2022/11/21 01:18:23;;;;;;;25.50;15.55;;;;;;;3.49;69.30;99913.41;690354;28;1287;-84
2022/11/21 01:18:44;;;;;;;23.75;14.40;;;;;;;3.47;69.28;99912.47;690522;28;1388;-84
2022/11/21 01:19:05;;;;;;;22.27;14.15;;;;;;;3.46;69.10;99908.13;690272;28;1238;-84
2022/11/21 01:19:26;;;;;;;22.90;14.77;;;;;;;3.44;68.78;99906.31;690758;28;1417;-84
2022/11/21 01:19:46;;;;;;;23.63;15.23;;;;;;;3.45;69.23;99905.47;690487;28;1491;-83
2022/11/21 01:20:07;;;;;;;25.50;15.30;;;;;;;3.38;69.45;99899.19;692748;28;1054;-84
2022/11/21 01:20:28;;;;;;;26.33;15.10;;;;;;;3.43;69.29;99902.81;687814;28;1264;-84
2022/11/21 01:20:48;;;;;;;27.52;15.20;;;;;;;3.40;69.35;99900.13;690276;28;1660;-84
2022/11/21 01:21:14;;;;;;;26.88;15.05;;;;;;;3.39;69.31;99895.78;693296;28;1158;-84
2022/11/21 01:21:35;;;;;;;27.45;14.75;;;;;;;3.46;69.36;99917.56;692619;28;1333;-83
2022/11/21 01:21:55;;;;;;;26.40;14.30;;;;;;;3.42;69.08;99907.13;687711;28;1071;-84
2022/11/21 01:22:16;;;;;;;27.40;15.48;;;;;;;3.43;69.48;99920.88;690271;28;1213;-85
2022/11/21 01:22:36;;;;;;;26.95;14.80;;;;;;;3.39;69.41;99903.53;687620;28;1853;-84
2022/11/21 01:22:57;;;;;;;26.20;14.80;;;;;;;3.35;69.68;99902.50;687814;28;1265;-84
2022/11/21 01:23:18;;;;;;;25.67;14.57;;;;;;;3.36;69.43;99900.81;690388;28;1205;-84
2022/11/21 01:24:01;;;;;;;24.05;14.55;;;;;;;3.46;69.09;99921.03;687652;28;1980;-84
2022/11/21 01:24:22;;;;;;;24.20;14.05;;;;;;;3.40;69.41;99907.88;687568;28;1332;-84
2022/11/21 01:24:42;;;;;;;25.30;15.20;;;;;;;3.45;69.04;99921.84;687634;28;1699;-85
2022/11/21 01:25:03;;;;;;;25.77;15.60;;;;;;;3.41;69.60;99915.69;693048;28;1216;-84
2022/11/21 01:25:24;;;;;;;27.02;15.90;;;;;;;3.44;69.19;99917.50;693583;28;1263;-84
2022/11/21 01:25:45;;;;;;;28.40;15.00;;;;;;;3.37;69.52;99913.78;684205;28;1378;-84
2022/11/21 01:26:09;;;;;;;27.50;14.80;;;;;;;3.38;69.11;99904.34;687634;28;1293;-84
2022/11/21 01:26:31;;;;;;;26.17;14.70;;;;;;;3.34;69.79;99902.44;690430;28;1098;-84
2022/11/21 01:26:53;;;;;;;26.20;15.23;;;;;;;3.36;69.46;99916.31;690320;28;1488;-83
2022/11/21 01:27:13;;;;;;;25.75;16.00;;;;;;;3.39;69.41;99912.13;688273;28;1257;-84
2022/11/21 01:27:34;;;;;;;27.13;15.93;;;;;;;3.45;69.15;99919.28;682660;28;1470;-84
2022/11/21 01:27:54;;;;;;;26.38;15.68;;;;;;;3.42;69.41;99922.59;690391;28;1515;-84
2022/11/21 01:28:15;;;;;;;27.88;15.20;;;;;;;3.40;69.03;99907.88;690199;28;1563;-84
2022/11/21 01:28:36;;;;;;;26.30;14.93;;;;;;;3.38;69.53;99905.22;690818;28;1199;-84
2022/11/21 01:28:57;;;;;;;26.50;15.25;;;;;;;3.40;69.13;99915.59;698632;28;1198;-85
2022/11/21 01:29:18;;;;;;;26.15;15.40;;;;;;;3.38;69.35;99909.50;698527;28;1299;-85
2022/11/21 01:29:38;;;;;;;28.42;16.20;;;;;;;3.40;69.63;99910.44;694020;28;1051;-84
2022/11/21 01:29:59;;;;;;;29.65;15.75;;;;;;;3.38;69.76;99904.34;687446;28;1185;-84
2022/11/21 01:30:19;;;;;;;27.17;15.17;;;;;;;3.48;69.68;99910.78;687173;28;1452;-85
2022/11/21 01:30:40;;;;;;;27.23;15.05;;;;;;;3.47;69.57;99911.56;690467;28;1305;-84
2022/11/21 01:31:12;;;;;;;28.58;16.27;;;;;;;3.48;69.62;99911.66;690442;28;1289;-84
2022/11/21 01:31:33;;;;;;;26.85;15.43;;;;;;;3.49;69.70;99913.41;682406;29;1175;-84
2022/11/21 01:31:59;;;;;;;27.02;14.80;;;;;;;3.51;69.34;99921.22;685101;28;1218;-85
2022/11/21 01:32:20;;;;;;;26.65;15.15;;;;;;;3.51;69.68;99916.97;687647;28;1139;-84
2022/11/21 01:32:40;;;;;;;26.70;15.40;;;;;;;3.56;69.71;99918.03;687876;28;807;-84
2022/11/21 01:33:01;;;;;;;25.95;15.23;;;;;;;3.52;69.10;99916.16;687674;28;1274;-84
2022/11/21 01:33:21;;;;;;;26.20;14.90;;;;;;;3.48;69.29;99911.66;693173;28;1121;-84
2022/11/21 01:33:43;;;;;;;26.42;14.88;;;;;;;3.51;69.14;99911.81;690036;28;1400;-84
2022/11/21 01:34:03;;;;;;;26.65;14.93;;;;;;;3.51;69.30;99916.97;684828;28;1662;-84
2022/11/21 01:34:24;;;;;;;26.30;14.98;;;;;;;3.50;69.61;99915.16;685059;28;1159;-85
2022/11/21 01:34:44;;;;;;;27.88;15.55;;;;;;;3.49;69.11;99910.84;684874;28;1907;-84
2022/11/21 01:35:06;;;;;;;28.23;15.70;;;;;;;3.47;69.11;99915.06;687565;28;1170;-84
2022/11/21 01:35:26;;;;;;;27.80;15.75;;;;;;;3.49;69.42;99918.56;685245;28;1341;-84
2022/11/21 01:35:47;;;;;;;26.07;15.37;;;;;;;3.47;69.00;99912.47;682372;28;1327;-84
2022/11/21 01:36:15;;;;;;;26.45;16.00;;;;;;;3.60;69.42;99929.34;687222;28;1421;-84
2022/11/21 01:36:35;;;;;;;27.13;16.33;;;;;;;3.58;69.40;99927.53;685247;28;1857;-84
2022/11/21 01:37:00;;;;;;;28.17;16.37;;;;;;;3.56;69.01;99922.31;689576;28;1279;-84
2022/11/21 01:37:20;;;;;;;26.38;15.75;;;;;;;3.54;69.09;99921.34;688530;28;1277;-85
2022/11/21 01:37:41;;;;;;;27.45;15.85;;;;;;;3.50;69.08;99930.66;687803;28;1633;-84
2022/11/21 01:38:01;;;;;;;28.63;16.40;;;;;;;3.53;68.97;99929.91;693110;28;1515;-84
2022/11/21 01:38:22;;;;;;;27.08;15.70;;;;;;;3.51;69.25;99926.38;690305;28;1226;-84
2022/11/21 01:38:45;;;;;;;25.73;15.60;;;;;;;3.52;69.41;99929.03;685182;28;1169;-84
2022/11/21 01:39:12;;;;;;;27.13;15.63;;;;;;;3.53;69.38;99924.75;685158;28;1298;-84
2022/11/21 01:39:32;;;;;;;28.63;16.40;;;;;;;3.47;69.47;99920.22;690110;28;1260;-84
2022/11/21 01:39:54;;;;;;;28.30;16.70;;;;;;;3.45;69.38;99923.53;684633;28;1350;-84
2022/11/21 01:40:14;;;;;;;27.70;16.10;;;;;;;3.45;69.42;99924.44;687574;28;1134;-84
2022/11/21 01:40:38;;;;;;;27.23;15.25;;;;;;;3.49;69.54;99933.19;687840;28;1002;-84
2022/11/21 01:40:59;;;;;;;26.48;14.90;;;;;;;3.47;69.13;99930.53;687184;28;1539;-84
2022/11/21 01:41:23;;;;;;;27.43;15.17;;;;;;;3.59;69.29;99937.03;687588;28;1250;-85